Aérodrome :
LOGIN :

S'inscrire | Disclaimer

   EN    FR    IT 

 










Légende :    VFR   VFR Marginal   IFR   IFR Intensif   IFR Très Intensif
Visi : 
Plafond : 
>= 8 km
>= 3000ft
5 à 8 km
1000 à 3000 ft
1500m à 5 km
500 à 1000 ft
800 à 1500m
200 à 500 ft
< 800m
< 200 ft
Symboles :   Orages  Brouillard  Fortes neiges  Fortes précipitations  Vent > 20 kt
SIGMETs :   Divers  Orages  Givrage  Turbulence  Onde Orograph.  Cendres Volcan.







- Altitude de l'aérodrome : 1276 ft
- Code IATA : STR


EDDS - Stuttgart

DERNIER METAR :
  • 202220Z 10003KT 070V140 CAVOK M03/M03 Q1008

METARs EXPIRÉS :
  • 202150Z 08001KT CAVOK M02/M03 Q1008
  • 202120Z 09001KT CAVOK M02/M02 Q1008
  • 202050Z 33002KT CAVOK M01/M03 Q1008 NOSIG
  • 202020Z 33002KT CAVOK M01/M02 Q1008 NOSIG
  • 201950Z VRB02KT CAVOK M00/M02 Q1008 NOSIG
  • 201920Z VRB02KT CAVOK M00/M02 Q1007 NOSIG

TAF TAF EDDS
Valide du 20 à 18h jusqu'au 21 à 18h UTC


201700Z 2018/2118 08004KT 9999 BKN025
PROB30
TEMPO 2102/2109 3000 BR BKN008
Pas de NOTAMs connus pour ce terrain.



MET'MAP, la Météo Aéronautique d'un coup d'oeil ! - Copyright ORBIFLY Décembre 2007 - Disclaimer

ORBIFLY MET'MAP TEAM :

Programmation & Développement : Alexandra Zaïnal
Conception & Développement : Baudouin d'Aumeries
Co-Programmation & Développement : Marc-Olivier Méhu
Soutien technique & logistique : Manuel Goepfert

Contact : metmap@orbifly.com




SOURCES & CREDITS :

   NOAA